Time;durP1;ratioP1;P1;durP2;ratioP2;P2;SDS_P1;SDS_P2;PMS_P1;PMS_P2;Temp;Humidity;BMP_temperature;BMP_pressure;BME280_temperature;BME280_humidity;BME280_pressure;Samples;Min_cycle;Max_cycle;Signal;HPM_P1;HPM_P2
2024/03/11 00:01:06;;;;;;;26.23;15.27;;;9.00;90.80;;;;;;5058631;28;20028;-52
2024/03/11 00:03:32;;;;;;;27.90;14.98;;;9.10;91.20;;;;;;5058656;28;20087;-52
2024/03/11 00:05:58;;;;;;;24.60;14.93;;;9.10;91.40;;;;;;5060404;28;20032;-54
2024/03/11 00:08:25;;;;;;;24.17;14.30;;;9.10;91.60;;;;;;5060168;28;20777;-55
2024/03/11 00:10:55;;;;;;;32.55;16.02;;;9.00;91.50;;;;;;5060205;28;20130;-52
2024/03/11 00:13:24;;;;;;;28.92;15.38;;;9.00;91.90;;;;;;5060201;28;20032;-52
2024/03/11 00:15:53;;;;;;;27.92;16.23;;;9.10;92.00;;;;;;5060241;28;20032;-53
2024/03/11 00:18:18;;;;;;;27.02;15.50;;;9.10;92.20;;;;;;5059940;28;20020;-55
2024/03/11 00:20:47;;;;;;;28.98;17.23;;;9.20;92.30;;;;;;5059978;28;20044;-54
2024/03/11 00:23:13;;;;;;;27.00;15.32;;;9.30;92.60;;;;;;5060276;28;20094;-52
2024/03/11 00:25:40;;;;;;;26.67;14.68;;;9.30;92.20;;;;;;5060336;28;20111;-54
2024/03/11 00:28:06;;;;;;;28.92;15.93;;;9.20;92.30;;;;;;5061716;28;20084;-55
2024/03/11 00:30:31;;;;;;;29.55;15.20;;;9.20;92.20;;;;;;5059968;28;20079;-55
2024/03/11 00:32:59;;;;;;;24.58;14.45;;;9.20;92.30;;;;;;5060189;28;20942;-54
2024/03/11 00:35:24;;;;;;;26.73;15.90;;;9.20;92.50;;;;;;5057143;28;20123;-52
2024/03/11 00:37:51;;;;;;;30.98;16.60;;;9.10;93.20;;;;;;5056314;28;20111;-53
2024/03/11 00:40:16;;;;;;;28.98;15.73;;;9.10;92.90;;;;;;5050732;28;20024;-53
2024/03/11 00:42:43;;;;;;;26.65;15.57;;;9.10;93.10;;;;;;5056481;28;20036;-55
2024/03/11 00:45:12;;;;;;;25.10;14.63;;;9.00;93.20;;;;;;5057296;28;20032;-54
2024/03/11 00:47:40;;;;;;;27.98;15.80;;;8.90;93.30;;;;;;5053386;28;20029;-55
2024/03/11 00:50:10;;;;;;;23.75;14.02;;;8.90;94.30;;;;;;5056274;28;20025;-50
2024/03/11 00:52:36;;;;;;;22.23;14.50;;;8.90;94.30;;;;;;5056776;28;20012;-53
2024/03/11 00:55:03;;;;;;;28.02;14.30;;;8.90;94.60;;;;;;5053445;28;20180;-51
2024/03/11 00:57:29;;;;;;;25.50;15.45;;;8.90;94.80;;;;;;5057629;28;20020;-53
2024/03/11 00:59:56;;;;;;;23.88;13.85;;;8.80;94.80;;;;;;5059272;28;20062;-54
2024/03/11 01:02:24;;;;;;;23.33;14.30;;;8.80;95.50;;;;;;5059545;28;20555;-54
2024/03/11 01:04:53;;;;;;;26.48;14.82;;;8.90;95.40;;;;;;5059412;28;20029;-56
2024/03/11 01:07:20;;;;;;;31.20;15.98;;;8.90;96.40;;;;;;5059324;28;20154;-54
2024/03/11 01:09:46;;;;;;;21.98;13.10;;;9.00;96.40;;;;;;5060882;28;20021;-53
2024/03/11 01:12:11;;;;;;;23.52;13.70;;;9.10;96.20;;;;;;5059719;28;20028;-53
2024/03/11 01:14:37;;;;;;;24.17;15.43;;;9.00;96.30;;;;;;5059008;28;20033;-54
2024/03/11 01:17:03;;;;;;;22.70;12.98;;;9.00;96.20;;;;;;5059264;28;20812;-53
2024/03/11 01:19:29;;;;;;;28.00;14.50;;;9.00;96.40;;;;;;5059251;28;20021;-53
2024/03/11 01:21:55;;;;;;;24.95;14.30;;;9.00;96.30;;;;;;5059225;28;20020;-53
2024/03/11 01:24:20;;;;;;;22.20;13.90;;;8.90;96.50;;;;;;5060929;28;20029;-55
2024/03/11 01:26:47;;;;;;;24.85;14.27;;;8.90;96.60;;;;;;5055269;28;20036;-55
2024/03/11 01:29:16;;;;;;;25.98;14.48;;;8.90;97.70;;;;;;5058967;28;20535;-54
2024/03/11 01:31:45;;;;;;;23.15;13.68;;;8.80;97.60;;;;;;5059001;28;20029;-56
2024/03/11 01:34:10;;;;;;;24.33;14.18;;;8.90;98.10;;;;;;5058837;28;20028;-51
2024/03/11 01:36:36;;;;;;;23.00;13.27;;;8.80;98.60;;;;;;5059041;28;20021;-54
2024/03/11 01:39:08;;;;;;;22.85;13.23;;;8.80;98.60;;;;;;5053568;28;20024;-52
2024/03/11 01:41:37;;;;;;;23.25;13.77;;;8.80;98.70;;;;;;5054901;28;20032;-53
2024/03/11 01:44:03;;;;;;;22.65;13.52;;;8.80;99.10;;;;;;5058886;28;20031;-55
2024/03/11 01:46:31;;;;;;;24.60;15.25;;;8.70;99.20;;;;;;5058744;28;20070;-53
2024/03/11 01:48:56;;;;;;;27.33;14.82;;;8.70;99.80;;;;;;5057366;28;20116;-54
2024/03/11 01:51:22;;;;;;;27.33;15.90;;;8.70;99.90;;;;;;5058697;28;20138;-52
2024/03/11 01:53:48;;;;;;;24.63;14.63;;;8.70;99.90;;;;;;5058327;28;20040;-52
2024/03/11 01:56:15;;;;;;;25.95;14.30;;;8.60;99.90;;;;;;5059266;28;20070;-54
2024/03/11 01:58:46;;;;;;;26.20;12.57;;;8.60;99.90;;;;;;5058478;28;20048;-54
2024/03/11 02:01:14;;;;;;;26.70;13.88;;;8.50;99.90;;;;;;5058630;28;20166;-53
2024/03/11 02:03:40;;;;;;;26.80;14.70;;;8.50;99.90;;;;;;5058567;28;20032;-52
2024/03/11 02:06:07;;;;;;;25.63;15.50;;;8.50;99.90;;;;;;5054195;28;20152;-52
2024/03/11 02:08:32;;;;;;;25.45;15.52;;;8.50;99.90;;;;;;5056576;28;20025;-55
2024/03/11 02:10:58;;;;;;;25.38;14.98;;;8.50;99.90;;;;;;5053438;28;20595;-54
2024/03/11 02:13:24;;;;;;;25.20;14.30;;;8.60;99.90;;;;;;5053023;28;20103;-53
2024/03/11 02:15:50;;;;;;;23.55;13.77;;;8.60;99.90;;;;;;5054622;28;20040;-54
2024/03/11 02:18:18;;;;;;;26.38;15.18;;;8.60;99.90;;;;;;5057096;28;20561;-55
2024/03/11 02:20:43;;;;;;;22.17;13.40;;;8.70;99.90;;;;;;5055552;28;20449;-53
2024/03/11 02:23:09;;;;;;;25.10;15.85;;;8.80;99.90;;;;;;5054497;28;20282;-50
2024/03/11 02:25:35;;;;;;;27.23;15.18;;;8.80;99.90;;;;;;5056402;28;20104;-55
2024/03/11 02:28:04;;;;;;;22.27;13.70;;;8.80;99.90;;;;;;5050848;28;20111;-52
2024/03/11 02:30:30;;;;;;;23.85;13.63;;;8.90;99.90;;;;;;5053264;28;20052;-49
2024/03/11 02:32:56;;;;;;;23.67;13.95;;;8.90;99.90;;;;;;5054575;28;20056;-52
2024/03/11 02:35:22;;;;;;;23.90;14.85;;;8.90;99.90;;;;;;5054199;28;20053;-48
2024/03/11 02:37:48;;;;;;;24.38;13.73;;;9.00;99.90;;;;;;5053974;28;20028;-46
2024/03/11 02:40:18;;;;;;;24.05;14.70;;;9.00;99.90;;;;;;5045290;28;20032;-46
2024/03/11 02:42:44;;;;;;;26.00;13.73;;;9.00;99.90;;;;;;5051558;28;20035;-50
2024/03/11 02:45:12;;;;;;;21.10;11.77;;;9.10;99.90;;;;;;5056442;28;20021;-49
2024/03/11 02:47:38;;;;;;;23.90;13.63;;;9.10;99.90;;;;;;5054609;28;20108;-51
2024/03/11 02:50:05;;;;;;;29.23;14.75;;;9.10;99.90;;;;;;5053792;28;20112;-49
2024/03/11 02:52:36;;;;;;;23.05;14.48;;;9.10;99.90;;;;;;5056025;28;20500;-48
2024/03/11 02:55:02;;;;;;;25.40;14.23;;;9.10;99.90;;;;;;5053323;28;20510;-48
2024/03/11 02:57:28;;;;;;;26.00;14.35;;;9.20;99.90;;;;;;5053865;28;20079;-46
2024/03/11 02:59:54;;;;;;;26.30;15.32;;;9.10;99.90;;;;;;5058055;28;20024;-51
2024/03/11 03:02:20;;;;;;;23.88;15.15;;;9.20;99.90;;;;;;5054059;28;20021;-51
2024/03/11 03:04:46;;;;;;;24.67;14.00;;;9.20;99.90;;;;;;5052453;28;20467;-51
2024/03/11 03:07:12;;;;;;;28.98;14.27;;;9.20;99.90;;;;;;5052736;28;20130;-49
2024/03/11 03:09:38;;;;;;;22.65;13.55;;;9.10;99.90;;;;;;5054547;28;20611;-50
2024/03/11 03:12:04;;;;;;;28.55;15.88;;;9.10;99.90;;;;;;5056152;28;20035;-50
2024/03/11 03:14:30;;;;;;;25.23;15.95;;;9.10;99.90;;;;;;5060056;28;20025;-52
2024/03/11 03:16:57;;;;;;;29.10;16.35;;;9.10;99.90;;;;;;5057543;28;20035;-50
2024/03/11 03:19:23;;;;;;;24.35;15.57;;;9.10;99.90;;;;;;5061092;28;20107;-49
2024/03/11 03:21:49;;;;;;;27.13;15.60;;;9.10;99.90;;;;;;5057356;28;20017;-49
2024/03/11 03:24:14;;;;;;;25.73;15.63;;;9.10;99.90;;;;;;5058241;28;20061;-50
2024/03/11 03:26:40;;;;;;;24.52;14.40;;;9.10;99.90;;;;;;5054651;28;20032;-50
2024/03/11 03:29:06;;;;;;;24.50;14.35;;;9.10;99.90;;;;;;5059389;28;20035;-48
2024/03/11 03:31:32;;;;;;;26.45;15.25;;;9.10;99.90;;;;;;5053175;28;20091;-54
2024/03/11 03:33:58;;;;;;;24.48;15.20;;;9.10;99.90;;;;;;5060319;28;20025;-49
2024/03/11 03:36:23;;;;;;;24.33;15.95;;;9.20;99.90;;;;;;5053592;28;20027;-52
2024/03/11 03:38:49;;;;;;;25.52;14.57;;;9.20;99.90;;;;;;5054299;28;20414;-51
2024/03/11 03:41:14;;;;;;;24.02;14.13;;;9.20;99.90;;;;;;5053998;28;20021;-51
2024/03/11 03:43:40;;;;;;;24.70;14.27;;;9.20;99.90;;;;;;5051750;28;20070;-50
2024/03/11 03:46:06;;;;;;;22.98;13.80;;;9.20;99.90;;;;;;5054563;28;20047;-52
2024/03/11 03:48:33;;;;;;;23.23;14.48;;;9.20;99.90;;;;;;5052281;28;20078;-50
2024/03/11 03:50:59;;;;;;;26.23;15.20;;;9.20;99.90;;;;;;5059932;28;20028;-50
2024/03/11 03:53:25;;;;;;;26.25;14.38;;;9.20;99.90;;;;;;5058618;28;20016;-50
2024/03/11 03:55:50;;;;;;;24.30;13.93;;;9.20;99.90;;;;;;5056654;28;20024;-53
2024/03/11 03:58:16;;;;;;;22.85;13.82;;;9.20;99.90;;;;;;5056451;28;20111;-51
2024/03/11 04:00:41;;;;;;;23.25;14.13;;;9.20;99.90;;;;;;5060629;28;20020;-50
2024/03/11 04:03:07;;;;;;;24.17;14.73;;;9.20;99.90;;;;;;5059487;28;20050;-49
2024/03/11 04:05:33;;;;;;;24.42;13.85;;;9.30;99.90;;;;;;5061119;28;20125;-47
2024/03/11 04:07:58;;;;;;;24.58;14.65;;;9.20;99.90;;;;;;5058361;28;20040;-52
2024/03/11 04:10:24;;;;;;;22.35;14.45;;;9.30;99.90;;;;;;5060397;28;20029;-50
2024/03/11 04:12:51;;;;;;;24.17;14.30;;;9.30;99.90;;;;;;5060420;28;20024;-53
2024/03/11 04:15:19;;;;;;;25.98;14.32;;;9.30;99.90;;;;;;5060464;28;20529;-51
2024/03/11 04:17:46;;;;;;;29.33;15.30;;;9.30;99.90;;;;;;5059489;28;20115;-52
2024/03/11 04:20:15;;;;;;;24.17;14.65;;;9.30;99.90;;;;;;5058145;28;20478;-55
2024/03/11 04:22:42;;;;;;;25.20;14.38;;;9.30;99.90;;;;;;5060093;28;20032;-53
2024/03/11 04:25:19;;;;;;;24.05;13.65;;;9.30;99.90;;;;;;5061656;28;20032;-49
2024/03/11 04:27:46;;;;;;;25.58;13.30;;;9.30;99.90;;;;;;5055600;28;20016;-55
2024/03/11 04:30:14;;;;;;;24.98;14.38;;;9.30;99.90;;;;;;5060332;28;20025;-50
2024/03/11 04:32:43;;;;;;;19.15;12.07;;;9.30;99.90;;;;;;5059963;28;20013;-55
2024/03/11 04:35:10;;;;;;;24.05;12.90;;;9.30;99.90;;;;;;5059953;28;20485;-50
2024/03/11 04:37:38;;;;;;;22.75;13.25;;;9.30;99.90;;;;;;5058664;28;20088;-48
2024/03/11 04:40:06;;;;;;;21.83;12.65;;;9.40;99.90;;;;;;5053839;28;20557;-50
2024/03/11 04:42:32;;;;;;;19.85;13.40;;;9.40;99.90;;;;;;5060148;28;20023;-52
2024/03/11 04:44:57;;;;;;;25.52;13.98;;;9.30;99.90;;;;;;5060026;28;20035;-52
2024/03/11 04:47:23;;;;;;;18.63;12.02;;;9.40;99.90;;;;;;5058636;28;20024;-48
2024/03/11 04:49:49;;;;;;;24.55;13.75;;;9.40;99.90;;;;;;5055848;28;20029;-51
2024/03/11 04:52:16;;;;;;;22.15;12.80;;;9.40;99.90;;;;;;5059638;28;20024;-48
2024/03/11 04:54:41;;;;;;;19.67;12.65;;;9.40;99.90;;;;;;5057927;28;20017;-49
2024/03/11 04:57:07;;;;;;;21.73;12.45;;;9.40;99.90;;;;;;5054916;28;20024;-51
2024/03/11 04:59:32;;;;;;;23.08;13.98;;;9.40;99.90;;;;;;5056631;28;20036;-54
2024/03/11 05:01:58;;;;;;;19.70;13.02;;;9.40;99.90;;;;;;5056964;28;20047;-52
2024/03/11 05:04:24;;;;;;;21.67;13.15;;;9.40;99.90;;;;;;5058906;28;20424;-53
2024/03/11 05:06:49;;;;;;;25.45;13.55;;;9.40;99.90;;;;;;5057878;28;20024;-52
2024/03/11 05:09:15;;;;;;;19.67;13.70;;;9.40;99.90;;;;;;5060039;28;20016;-51
2024/03/11 05:11:40;;;;;;;21.25;13.52;;;9.40;99.90;;;;;;5059399;28;20051;-53
2024/03/11 05:14:06;;;;;;;25.90;15.00;;;9.30;99.90;;;;;;5059016;28;20055;-50
2024/03/11 05:16:32;;;;;;;22.83;14.15;;;9.30;99.90;;;;;;5059460;28;20078;-54
2024/03/11 05:18:58;;;;;;;24.50;15.23;;;9.30;99.90;;;;;;5059023;28;20565;-54
2024/03/11 05:21:24;;;;;;;25.67;13.82;;;9.30;99.90;;;;;;5059265;28;20070;-49
2024/03/11 05:23:50;;;;;;;21.67;13.93;;;9.30;99.90;;;;;;5061078;28;20028;-51
2024/03/11 05:26:17;;;;;;;20.58;13.68;;;9.30;99.90;;;;;;5059442;28;20017;-51
2024/03/11 05:28:44;;;;;;;19.45;13.05;;;9.30;99.90;;;;;;5057074;28;20510;-50
2024/03/11 05:31:11;;;;;;;21.13;13.63;;;9.30;99.90;;;;;;5059151;28;20027;-51
2024/03/11 05:33:36;;;;;;;23.20;13.07;;;9.30;99.90;;;;;;5058938;28;20032;-52
2024/03/11 05:36:02;;;;;;;18.67;12.20;;;9.30;99.90;;;;;;5058648;28;20371;-53
2024/03/11 05:38:28;;;;;;;23.92;13.90;;;9.30;99.90;;;;;;5059808;28;20375;-50
2024/03/11 05:40:53;;;;;;;21.70;14.57;;;9.30;99.90;;;;;;5057289;28;20020;-51
2024/03/11 05:43:19;;;;;;;22.20;13.50;;;9.30;99.90;;;;;;5059437;28;20028;-48
2024/03/11 05:45:47;;;;;;;22.25;13.45;;;9.30;99.90;;;;;;5056945;28;20033;-53
2024/03/11 05:48:13;;;;;;;24.20;14.93;;;9.30;99.90;;;;;;5057189;28;20363;-49
2024/03/11 05:50:38;;;;;;;28.42;15.27;;;9.30;99.90;;;;;;5058903;28;20039;-52
2024/03/11 05:53:04;;;;;;;24.88;15.48;;;9.30;99.90;;;;;;5052222;28;20021;-51
2024/03/11 05:55:32;;;;;;;22.27;14.45;;;9.30;99.90;;;;;;5060861;28;20090;-52
2024/03/11 05:58:08;;;;;;;29.42;14.60;;;9.30;99.90;;;;;;5058346;28;20025;-50
2024/03/11 06:00:34;;;;;;;23.50;15.13;;;9.30;99.90;;;;;;5057931;28;20029;-50
2024/03/11 06:03:00;;;;;;;22.25;14.55;;;9.30;99.90;;;;;;5052887;28;20044;-51
2024/03/11 06:05:25;;;;;;;23.40;14.70;;;9.30;99.90;;;;;;5053924;28;20020;-51
2024/03/11 06:07:51;;;;;;;21.55;15.35;;;9.30;99.90;;;;;;5052406;28;20112;-52
2024/03/11 06:10:17;;;;;;;24.05;15.23;;;9.40;99.90;;;;;;5057150;28;20040;-51
2024/03/11 06:12:43;;;;;;;25.48;14.40;;;9.30;99.90;;;;;;5058165;28;20052;-52
2024/03/11 06:15:09;;;;;;;23.08;15.13;;;9.30;99.90;;;;;;5054158;28;20036;-49
2024/03/11 06:17:35;;;;;;;25.33;14.60;;;9.40;99.90;;;;;;5056209;28;20047;-52
2024/03/11 06:20:04;;;;;;;28.42;15.43;;;9.40;99.90;;;;;;5049809;28;20017;-51
2024/03/11 06:22:30;;;;;;;20.92;15.25;;;9.40;99.90;;;;;;5051676;28;20087;-49
2024/03/11 06:24:58;;;;;;;22.05;14.48;;;9.40;99.90;;;;;;5053285;28;20050;-51
2024/03/11 06:27:24;;;;;;;19.90;14.00;;;9.40;99.90;;;;;;5054032;28;20017;-50
2024/03/11 06:29:49;;;;;;;22.92;13.85;;;9.40;99.90;;;;;;5058386;28;20436;-50
2024/03/11 06:32:16;;;;;;;18.70;13.30;;;9.50;99.90;;;;;;5058058;28;20104;-50
2024/03/11 06:34:41;;;;;;;20.58;14.02;;;9.40;99.90;;;;;;5060303;28;20032;-52
2024/03/11 06:37:07;;;;;;;18.17;12.90;;;9.50;99.90;;;;;;5058503;28;20025;-51
2024/03/11 06:39:33;;;;;;;17.92;12.80;;;9.50;99.90;;;;;;5053092;28;20575;-51
2024/03/11 06:41:59;;;;;;;23.90;14.02;;;9.50;99.90;;;;;;5061510;28;20025;-50
2024/03/11 06:44:25;;;;;;;20.40;14.05;;;9.60;99.90;;;;;;5062465;28;20619;-47
2024/03/11 06:46:51;;;;;;;20.15;13.35;;;9.60;99.90;;;;;;5060596;28;20039;-51
2024/03/11 06:49:17;;;;;;;21.70;14.82;;;9.60;99.90;;;;;;5067494;28;20244;-50
2024/03/11 06:51:42;;;;;;;21.27;13.23;;;9.60;99.90;;;;;;5061998;28;20048;-52
2024/03/11 06:54:08;;;;;;;19.50;13.02;;;9.70;99.90;;;;;;5061643;28;20636;-52
2024/03/11 06:56:33;;;;;;;20.80;12.95;;;9.70;99.90;;;;;;5061817;28;20394;-50
2024/03/11 06:58:59;;;;;;;18.10;12.93;;;9.70;99.90;;;;;;5057270;28;20483;-50
2024/03/11 07:01:29;;;;;;;23.95;14.50;;;9.70;99.90;;;;;;5061838;28;20028;-48
2024/03/11 07:03:55;;;;;;;22.08;13.95;;;9.80;99.90;;;;;;5061860;28;20017;-49
2024/03/11 07:06:22;;;;;;;22.42;14.73;;;9.80;99.90;;;;;;5063233;28;20024;-49
2024/03/11 07:08:49;;;;;;;20.05;13.68;;;9.80;99.90;;;;;;5061443;28;20363;-50
2024/03/11 07:11:15;;;;;;;24.40;14.15;;;9.80;99.90;;;;;;5061389;28;20143;-51
2024/03/11 07:13:42;;;;;;;22.73;14.95;;;9.80;99.90;;;;;;5061191;28;20032;-49
2024/03/11 07:16:09;;;;;;;22.58;14.23;;;9.80;99.90;;;;;;5061518;28;20020;-53
2024/03/11 07:18:35;;;;;;;19.98;13.35;;;9.90;99.90;;;;;;5061238;28;20024;-51
2024/03/11 07:21:05;;;;;;;19.67;13.43;;;9.90;99.90;;;;;;5057529;28;20047;-50
2024/03/11 07:23:33;;;;;;;17.35;12.45;;;10.00;99.90;;;;;;5061601;28;20549;-51
2024/03/11 07:25:59;;;;;;;23.15;14.35;;;10.00;99.90;;;;;;5061930;28;20020;-48
2024/03/11 07:28:29;;;;;;;20.83;13.40;;;10.00;99.90;;;;;;5061456;28;20105;-53
2024/03/11 07:30:58;;;;;;;20.25;14.18;;;10.00;99.90;;;;;;5053881;28;20028;-47
2024/03/11 07:33:24;;;;;;;21.85;14.82;;;10.00;99.90;;;;;;5054919;28;20028;-49
2024/03/11 07:35:52;;;;;;;22.55;14.38;;;10.10;99.90;;;;;;5056612;28;20029;-52
2024/03/11 07:38:19;;;;;;;22.27;13.05;;;10.10;99.90;;;;;;5060769;28;20913;-49
2024/03/11 07:40:45;;;;;;;18.25;13.20;;;10.20;99.90;;;;;;5051799;28;20027;-49
2024/03/11 07:43:11;;;;;;;23.67;13.48;;;10.30;99.90;;;;;;5056514;28;20508;-49
2024/03/11 07:45:39;;;;;;;22.92;15.07;;;10.30;99.90;;;;;;5056869;28;20116;-50
2024/03/11 07:48:08;;;;;;;22.55;14.85;;;10.40;99.90;;;;;;5056587;28;20123;-50
2024/03/11 07:50:33;;;;;;;22.60;15.25;;;10.50;99.90;;;;;;5054602;28;20056;-47
2024/03/11 07:52:59;;;;;;;23.05;14.80;;;10.60;99.90;;;;;;5058565;28;20052;-52
2024/03/11 07:55:24;;;;;;;25.38;15.88;;;10.70;99.90;;;;;;5060002;28;20666;-49
2024/03/11 07:57:53;;;;;;;18.63;12.60;;;10.70;99.90;;;;;;5059895;28;20070;-52
2024/03/11 08:00:20;;;;;;;21.75;14.93;;;10.80;99.90;;;;;;5056424;28;20075;-50
2024/03/11 08:02:49;;;;;;;19.63;12.65;;;10.90;99.90;;;;;;5051180;28;20036;-50
2024/03/11 08:05:17;;;;;;;23.48;14.25;;;10.90;99.90;;;;;;5055441;28;20017;-51
2024/03/11 08:07:44;;;;;;;19.65;13.52;;;10.90;99.90;;;;;;5053526;28;20027;-51
2024/03/11 08:10:12;;;;;;;20.80;14.23;;;11.00;99.70;;;;;;5056885;28;20043;-48
2024/03/11 08:12:44;;;;;;;21.33;14.10;;;11.00;99.40;;;;;;5058252;28;20090;-49
2024/03/11 08:15:12;;;;;;;22.60;12.85;;;11.10;99.50;;;;;;5060483;28;20059;-49
2024/03/11 08:17:39;;;;;;;18.42;12.10;;;11.10;99.20;;;;;;5052130;28;20449;-51
2024/03/11 08:20:08;;;;;;;20.23;12.88;;;11.00;98.70;;;;;;5061880;28;20043;-50
2024/03/11 08:22:47;;;;;;;21.20;13.23;;;11.00;98.60;;;;;;5057956;28;21121;-50
2024/03/11 08:25:14;;;;;;;23.02;14.68;;;11.00;99.00;;;;;;5058416;28;20032;-53
2024/03/11 08:27:40;;;;;;;18.27;12.55;;;10.90;98.90;;;;;;5057957;28;20452;-48
2024/03/11 08:30:09;;;;;;;19.65;13.20;;;10.90;99.10;;;;;;5059741;28;20032;-51
2024/03/11 08:32:35;;;;;;;19.83;12.77;;;10.90;99.20;;;;;;5059790;28;20032;-52
2024/03/11 08:35:01;;;;;;;18.05;12.23;;;11.00;99.40;;;;;;5059783;28;20078;-50
2024/03/11 08:37:27;;;;;;;23.67;13.65;;;11.00;99.20;;;;;;5055518;28;20021;-48
2024/03/11 08:39:53;;;;;;;20.13;12.85;;;11.00;98.90;;;;;;5056338;28;20044;-52
2024/03/11 08:42:21;;;;;;;20.08;12.65;;;11.10;98.90;;;;;;5061770;28;20059;-46
2024/03/11 08:44:50;;;;;;;20.92;13.27;;;11.10;98.80;;;;;;5061233;28;20028;-47
2024/03/11 08:47:16;;;;;;;22.75;14.10;;;11.20;98.60;;;;;;5057395;28;20509;-48
2024/03/11 08:49:44;;;;;;;22.67;13.80;;;11.40;98.10;;;;;;5059670;28;20048;-50
2024/03/11 08:52:12;;;;;;;21.30;12.75;;;11.40;97.60;;;;;;5055057;28;20086;-49
2024/03/11 08:54:42;;;;;;;18.65;12.82;;;11.50;97.30;;;;;;5051088;28;20496;-47
2024/03/11 08:57:12;;;;;;;19.23;12.57;;;11.50;97.20;;;;;;5055942;28;20021;-46
2024/03/11 08:59:38;;;;;;;23.83;13.73;;;11.60;96.90;;;;;;5050172;28;20036;-47
2024/03/11 09:02:05;;;;;;;18.00;12.10;;;11.70;96.40;;;;;;5051519;28;20037;-48
2024/03/11 09:04:30;;;;;;;21.20;13.45;;;11.80;95.80;;;;;;5049732;28;20020;-48
2024/03/11 09:06:57;;;;;;;20.08;12.90;;;11.90;95.30;;;;;;5056001;28;20036;-46
2024/03/11 09:09:27;;;;;;;23.25;14.02;;;11.90;95.10;;;;;;5052006;28;20017;-49
2024/03/11 09:11:57;;;;;;;21.52;13.18;;;11.90;94.80;;;;;;5057471;28;20049;-47
2024/03/11 09:14:32;;;;;;;23.05;12.55;;;12.00;94.60;;;;;;5055369;28;20021;-46
2024/03/11 09:17:00;;;;;;;20.52;12.63;;;12.10;94.60;;;;;;5056463;28;20439;-48
2024/03/11 09:19:28;;;;;;;26.23;13.75;;;12.10;93.80;;;;;;5052888;28;20040;-50
2024/03/11 09:21:55;;;;;;;22.40;12.85;;;12.10;94.00;;;;;;5054903;28;20390;-52
2024/03/11 09:24:20;;;;;;;17.70;12.25;;;12.20;94.00;;;;;;5054606;28;20555;-47
2024/03/11 09:26:49;;;;;;;23.75;14.55;;;12.20;93.80;;;;;;5058169;28;20036;-47
2024/03/11 09:29:16;;;;;;;21.27;14.18;;;12.20;93.40;;;;;;5057321;28;20031;-47
2024/03/11 09:31:42;;;;;;;24.92;16.20;;;12.20;93.20;;;;;;5053218;28;20036;-51
2024/03/11 09:34:08;;;;;;;22.92;15.77;;;12.20;93.30;;;;;;5053989;28;20505;-45
2024/03/11 09:36:36;;;;;;;23.38;14.32;;;12.20;92.60;;;;;;5056245;28;20039;-50
2024/03/11 09:39:06;;;;;;;26.00;15.52;;;12.30;92.60;;;;;;5056857;28;20603;-48
2024/03/11 09:42:05;;;;;;;26.60;13.73;;;12.40;92.40;;;;;;5054838;28;20534;-46
2024/03/11 09:44:30;;;;;;;29.27;16.40;;;12.60;92.40;;;;;;5052601;28;20398;-45
2024/03/11 09:47:00;;;;;;;23.08;15.10;;;12.70;91.60;;;;;;5053962;28;20032;-50
2024/03/11 09:49:25;;;;;;;26.48;17.27;;;12.80;91.00;;;;;;5057365;28;20025;-47
2024/03/11 09:51:53;;;;;;;29.08;19.38;;;12.90;90.60;;;;;;5055651;28;20039;-47
2024/03/11 09:54:21;;;;;;;30.27;20.70;;;12.90;89.80;;;;;;5056705;28;20541;-46
2024/03/11 09:56:51;;;;;;;36.20;22.52;;;13.00;88.30;;;;;;5051011;28;20028;-45
2024/03/11 09:59:18;;;;;;;27.23;20.15;;;13.10;86.90;;;;;;5058386;28;20036;-47
2024/03/11 10:01:52;;;;;;;32.03;21.63;;;13.20;84.40;;;;;;5058224;28;20064;-48
2024/03/11 10:04:25;;;;;;;30.15;21.42;;;13.40;84.40;;;;;;5058254;28;20398;-45
2024/03/11 10:06:58;;;;;;;29.55;19.70;;;13.50;82.80;;;;;;5058274;28;20032;-49
2024/03/11 10:09:24;;;;;;;28.33;18.13;;;13.60;81.40;;;;;;5058281;28;20043;-51
2024/03/11 10:12:08;;;;;;;24.55;17.70;;;13.50;81.30;;;;;;5058005;28;20076;-45
2024/03/11 10:14:35;;;;;;;22.92;16.75;;;13.50;81.50;;;;;;5059149;28;20462;-47
2024/03/11 10:17:34;;;;;;;23.75;17.60;;;13.30;81.10;;;;;;5060647;28;20274;-47
2024/03/11 10:20:00;;;;;;;22.90;16.63;;;13.40;80.90;;;;;;5053971;28;20294;-49
2024/03/11 10:22:29;;;;;;;24.27;15.98;;;13.30;81.60;;;;;;5062425;28;20105;-47
2024/03/11 10:24:57;;;;;;;21.38;16.52;;;13.30;81.20;;;;;;5057971;28;20091;-45
2024/03/11 10:27:28;;;;;;;21.77;15.43;;;13.20;80.80;;;;;;5062315;28;20517;-52
2024/03/11 10:29:54;;;;;;;20.58;15.63;;;13.10;81.20;;;;;;5062139;28;20024;-49
2024/03/11 10:32:42;;;;;;;21.38;16.00;;;13.10;81.70;;;;;;5061694;28;20379;-44
2024/03/11 10:35:20;;;;;;;22.77;16.35;;;13.00;80.70;;;;;;5060799;28;20037;-47
2024/03/11 10:37:46;;;;;;;20.13;14.73;;;13.00;81.10;;;;;;5063850;28;20017;-48
2024/03/11 10:40:19;;;;;;;19.80;14.75;;;13.00;81.50;;;;;;5055924;28;20047;-47
2024/03/11 10:42:55;;;;;;;18.00;13.93;;;13.00;81.60;;;;;;5060053;28;20032;-47
2024/03/11 10:45:32;;;;;;;18.23;13.85;;;13.10;81.40;;;;;;5058536;28;20062;-46
2024/03/11 10:48:09;;;;;;;20.25;15.55;;;13.20;81.30;;;;;;5061500;28;20063;-50
2024/03/11 10:50:35;;;;;;;22.27;16.35;;;13.30;80.70;;;;;;5061769;28;20446;-46
2024/03/11 10:53:03;;;;;;;22.25;15.75;;;13.30;79.70;;;;;;5061538;28;20548;-47
2024/03/11 10:55:35;;;;;;;19.50;14.55;;;13.40;80.40;;;;;;5063007;28;20028;-46
2024/03/11 10:58:04;;;;;;;20.65;15.57;;;13.40;79.70;;;;;;5057128;28;20494;-50
2024/03/11 11:00:34;;;;;;;20.83;14.27;;;13.40;77.90;;;;;;5057082;28;20052;-45
2024/03/11 11:03:12;;;;;;;21.90;15.27;;;13.50;78.70;;;;;;5059703;28;20104;-51
2024/03/11 11:06:01;;;;;;;21.85;15.45;;;13.70;77.90;;;;;;5061566;28;20031;-45
2024/03/11 11:08:30;;;;;;;19.73;14.88;;;13.90;76.90;;;;;;5054441;28;20032;-46
2024/03/11 11:11:00;;;;;;;18.90;13.55;;;14.20;75.90;;;;;;5057958;28;20064;-46
2024/03/11 11:13:29;;;;;;;14.90;11.73;;;14.50;76.10;;;;;;5061088;28;20097;-47
2024/03/11 11:15:58;;;;;;;18.38;12.20;;;14.80;75.40;;;;;;5061217;28;20032;-45
2024/03/11 11:18:26;;;;;;;19.08;13.20;;;15.00;75.80;;;;;;5059534;28;20036;-49
2024/03/11 11:20:52;;;;;;;14.40;11.65;;;15.20;74.80;;;;;;5061035;28;20029;-45
2024/03/11 11:23:27;;;;;;;18.08;13.90;;;15.30;73.90;;;;;;5057208;28;20031;-46
2024/03/11 11:25:55;;;;;;;19.42;14.30;;;15.30;71.50;;;;;;5061115;28;20508;-46
2024/03/11 11:28:29;;;;;;;20.70;14.57;;;15.30;70.70;;;;;;5060638;28;20166;-45
2024/03/11 11:31:11;;;;;;;21.00;16.33;;;15.40;70.50;;;;;;5059496;28;20028;-46
2024/03/11 11:33:56;;;;;;;18.77;13.63;;;15.20;66.90;;;;;;5058137;28;20033;-44
2024/03/11 11:36:36;;;;;;;19.77;14.75;;;15.30;68.30;;;;;;5059295;28;20494;-49
2024/03/11 11:39:28;;;;;;;20.02;15.48;;;15.40;68.20;;;;;;5057472;28;20647;-48
2024/03/11 11:41:57;;;;;;;21.70;14.65;;;15.20;66.60;;;;;;5060796;28;20024;-46
2024/03/11 11:44:26;;;;;;;20.90;13.93;;;15.10;68.10;;;;;;5055182;28;20519;-50
2024/03/11 11:46:52;;;;;;;14.82;11.43;;;15.00;68.30;;;;;;5060675;28;20032;-45
2024/03/11 11:49:19;;;;;;;18.23;12.90;;;14.90;68.90;;;;;;5060332;28;20029;-45
2024/03/11 11:51:51;;;;;;;17.88;12.48;;;14.90;69.10;;;;;;5060805;28;20105;-47
2024/03/11 11:54:32;;;;;;;18.98;14.60;;;14.80;69.60;;;;;;5060733;28;20021;-45
2024/03/11 11:57:05;;;;;;;18.52;13.68;;;14.80;69.40;;;;;;5060303;28;20025;-48
2024/03/11 11:59:43;;;;;;;14.55;11.23;;;14.70;68.60;;;;;;5060295;28;20020;-46
2024/03/11 12:02:19;;;;;;;13.45;9.93;;;14.70;69.20;;;;;;5059346;28;20131;-49
2024/03/11 12:05:00;;;;;;;15.18;11.40;;;14.70;69.20;;;;;;5057988;28;20021;-47
2024/03/11 12:07:26;;;;;;;12.95;9.55;;;14.70;69.50;;;;;;5060573;28;20025;-48
2024/03/11 12:09:56;;;;;;;12.23;9.25;;;14.70;69.80;;;;;;5059940;28;20032;-47
2024/03/11 12:12:39;;;;;;;14.98;9.48;;;14.70;70.00;;;;;;5059842;28;20090;-47
2024/03/11 12:15:05;;;;;;;14.50;10.38;;;14.70;70.00;;;;;;5060366;28;20098;-48
2024/03/11 12:17:32;;;;;;;17.38;13.27;;;14.70;69.90;;;;;;5054161;28;20062;-44
2024/03/11 12:20:13;;;;;;;15.75;11.93;;;14.60;69.70;;;;;;5059670;28;20028;-45
2024/03/11 12:22:39;;;;;;;14.13;10.93;;;14.50;69.20;;;;;;5060028;28;20055;-46
2024/03/11 12:25:07;;;;;;;16.55;12.07;;;14.40;69.80;;;;;;5060075;28;20052;-46
2024/03/11 12:27:36;;;;;;;15.98;11.90;;;14.40;70.00;;;;;;5059987;28;20431;-48
2024/03/11 12:30:03;;;;;;;15.70;11.80;;;14.20;69.60;;;;;;5059691;28;20056;-47
2024/03/11 12:32:30;;;;;;;19.05;13.13;;;14.20;69.80;;;;;;5053301;28;20033;-45
2024/03/11 12:34:58;;;;;;;16.65;11.45;;;14.10;69.80;;;;;;5056625;28;20070;-49
2024/03/11 12:37:24;;;;;;;17.08;11.30;;;14.10;70.00;;;;;;5060871;28;20025;-47